Time;durP1;ratioP1;P1;durP2;ratioP2;P2;SDS_P1;SDS_P2;PMS_P1;PMS_P2;Temp;Humidity;BMP_temperature;BMP_pressure;BME280_temperature;BME280_humidity;BME280_pressure;Samples;Min_cycle;Max_cycle;Signal;HPM_P1;HPM_P2
2022/06/14 00:01:00;;;;;;;3.67;2.92;;;;;;;;;;7330359;19;153985;-17
2022/06/14 00:03:37;;;;;;;4.32;2.70;;;;;;;;;;7331632;19;153844;-17
2022/06/14 00:06:12;;;;;;;4.88;3.25;;;;;;;;;;7329845;19;161825;-18
2022/06/14 00:08:46;;;;;;;5.53;3.13;;;;;;;;;;7328492;19;162405;-17
2022/06/14 00:11:21;;;;;;;5.03;2.50;;;;;;;;;;7328622;19;153735;-17
2022/06/14 00:13:55;;;;;;;5.07;3.20;;;;;;;;;;7329721;19;153653;-18
2022/06/14 00:16:29;;;;;;;3.90;2.55;;;;;;;;;;7326893;19;162065;-18
2022/06/14 00:19:05;;;;;;;4.03;2.60;;;;;;;;;;7329384;19;162390;-17
2022/06/14 00:21:39;;;;;;;5.00;2.80;;;;;;;;;;7328653;19;154216;-18
2022/06/14 00:24:10;;;;;;;4.47;2.70;;;;;;;;;;7329620;19;153849;-17
2022/06/14 00:26:42;;;;;;;4.53;2.63;;;;;;;;;;7329092;19;161958;-18
2022/06/14 00:29:13;;;;;;;3.63;2.35;;;;;;;;;;7327220;19;162375;-18
2022/06/14 00:31:46;;;;;;;3.80;2.65;;;;;;;;;;7329538;19;153967;-17
2022/06/14 00:34:20;;;;;;;2.95;2.40;;;;;;;;;;7329340;19;153578;-17
2022/06/14 00:36:57;;;;;;;4.10;2.90;;;;;;;;;;7327438;19;162402;-17
2022/06/14 00:39:29;;;;;;;5.32;2.80;;;;;;;;;;7328797;19;162690;-17
2022/06/14 00:42:00;;;;;;;6.47;2.90;;;;;;;;;;7329401;19;154539;-17
2022/06/14 00:44:32;;;;;;;7.15;3.10;;;;;;;;;;7329108;19;153584;-17
2022/06/14 00:47:07;;;;;;;6.32;3.10;;;;;;;;;;7328746;19;161872;-17
2022/06/14 00:49:46;;;;;;;5.88;3.50;;;;;;;;;;7326793;19;162387;-17
2022/06/14 00:52:21;;;;;;;4.05;2.55;;;;;;;;;;7328946;19;153730;-17
2022/06/14 00:54:59;;;;;;;5.32;3.20;;;;;;;;;;7328787;19;153748;-17
2022/06/14 00:57:38;;;;;;;5.90;3.15;;;;;;;;;;7328366;19;162159;-17
2022/06/14 01:00:14;;;;;;;5.07;3.15;;;;;;;;;;7326918;19;162512;-17
2022/06/14 01:02:49;;;;;;;4.43;2.95;;;;;;;;;;7328585;19;154144;-17
2022/06/14 01:05:26;;;;;;;4.10;2.30;;;;;;;;;;7335573;19;153646;-17
2022/06/14 01:08:01;;;;;;;4.40;2.70;;;;;;;;;;7335012;19;161908;-17
2022/06/14 01:10:35;;;;;;;3.78;2.92;;;;;;;;;;7332825;19;162487;-17
2022/06/14 01:13:08;;;;;;;6.18;2.92;;;;;;;;;;7335340;19;154113;-17
2022/06/14 01:15:39;;;;;;;5.15;2.60;;;;;;;;;;7334286;19;153673;-17
2022/06/14 01:18:12;;;;;;;4.10;2.95;;;;;;;;;;7334672;19;161988;-17
2022/06/14 01:20:46;;;;;;;4.95;3.03;;;;;;;;;;7334637;19;162387;-17
2022/06/14 01:23:21;;;;;;;4.35;2.70;;;;;;;;;;7334766;19;154200;-16
2022/06/14 01:25:57;;;;;;;5.82;2.92;;;;;;;;;;7335003;19;153628;-17
2022/06/14 01:28:30;;;;;;;2.72;2.50;;;;;;;;;;7334441;19;162028;-17
2022/06/14 01:31:01;;;;;;;5.15;2.78;;;;;;;;;;7333400;19;162555;-17
2022/06/14 01:33:37;;;;;;;4.97;2.93;;;;;;;;;;7334689;19;154048;-17
2022/06/14 01:36:13;;;;;;;5.88;2.85;;;;;;;;;;7334758;19;153707;-17
2022/06/14 01:38:49;;;;;;;3.13;2.60;;;;;;;;;;7334453;19;161962;-16
2022/06/14 01:41:31;;;;;;;4.93;3.25;;;;;;;;;;7334233;19;162407;-18
2022/06/14 01:44:27;;;;;;;3.58;2.80;;;;;;;;;;7334304;19;153761;-17
2022/06/14 01:47:11;;;;;;;4.40;2.85;;;;;;;;;;7334248;19;153300;-17
2022/06/14 01:52:36;;;;;;;4.60;2.70;;;;;;;;;;7333425;19;162318;-17
2022/06/14 01:55:22;;;;;;;3.92;2.58;;;;;;;;;;7333998;19;154253;-17
2022/06/14 01:57:59;;;;;;;2.83;2.50;;;;;;;;;;7333998;19;153510;-17
2022/06/14 02:00:35;;;;;;;4.88;2.78;;;;;;;;;;7335944;19;161936;-17
2022/06/14 02:06:13;;;;;;;4.22;2.53;;;;;;;;;;7333458;19;154003;-18
2022/06/14 02:08:51;;;;;;;5.18;2.88;;;;;;;;;;7333440;19;153535;-17
2022/06/14 02:11:29;;;;;;;4.05;2.90;;;;;;;;;;7330420;19;162124;-17
2022/06/14 02:14:09;;;;;;;4.80;2.25;;;;;;;;;;7331239;19;162364;-18
2022/06/14 02:16:44;;;;;;;5.85;3.22;;;;;;;;;;7330836;19;154090;-18
2022/06/14 02:19:23;;;;;;;4.43;2.60;;;;;;;;;;7333405;19;153552;-17
2022/06/14 02:22:01;;;;;;;2.55;2.35;;;;;;;;;;7332991;19;161759;-18
2022/06/14 02:24:36;;;;;;;7.00;2.80;;;;;;;;;;7332895;19;162497;-18
2022/06/14 02:27:15;;;;;;;6.70;2.97;;;;;;;;;;7332850;19;154002;-17
2022/06/14 02:29:49;;;;;;;3.75;2.55;;;;;;;;;;7332222;19;153497;-17
2022/06/14 02:32:25;;;;;;;3.13;2.20;;;;;;;;;;7332518;19;161843;-17
2022/06/14 02:35:03;;;;;;;2.65;2.28;;;;;;;;;;7332570;19;162433;-18
2022/06/14 02:37:39;;;;;;;4.72;2.63;;;;;;;;;;7331760;19;153996;-16
2022/06/14 02:40:14;;;;;;;4.15;2.30;;;;;;;;;;7332787;19;153581;-17
2022/06/14 02:42:54;;;;;;;4.40;2.30;;;;;;;;;;7332387;19;162333;-17
2022/06/14 02:45:29;;;;;;;5.32;2.72;;;;;;;;;;7332212;19;162282;-18
2022/06/14 02:48:04;;;;;;;3.85;2.53;;;;;;;;;;7332750;19;154403;-16
2022/06/14 02:50:41;;;;;;;2.95;2.35;;;;;;;;;;7331173;19;153534;-18
2022/06/14 02:53:18;;;;;;;2.90;2.30;;;;;;;;;;7332156;19;162279;-17
2022/06/14 02:55:53;;;;;;;4.32;2.53;;;;;;;;;;7332227;19;162666;-17
2022/06/14 02:58:31;;;;;;;4.35;2.78;;;;;;;;;;7332426;19;154287;-17
2022/06/14 03:01:10;;;;;;;3.75;2.45;;;;;;;;;;7332303;19;153578;-17
2022/06/14 03:03:47;;;;;;;3.70;2.55;;;;;;;;;;7331901;19;162197;-17
2022/06/14 03:06:27;;;;;;;3.55;2.45;;;;;;;;;;7331703;19;162413;-18
2022/06/14 03:09:02;;;;;;;3.22;2.17;;;;;;;;;;7334672;19;154303;-17
2022/06/14 03:11:52;;;;;;;2.70;2.47;;;;;;;;;;7329659;19;153526;-16
2022/06/14 03:14:32;;;;;;;2.72;2.30;;;;;;;;;;7331395;19;161879;-18
2022/06/14 03:17:22;;;;;;;4.07;2.72;;;;;;;;;;7331443;19;162659;-18
2022/06/14 03:20:07;;;;;;;4.20;2.50;;;;;;;;;;7331714;19;153924;-23
2022/06/14 03:22:46;;;;;;;2.55;2.35;;;;;;;;;;7331835;19;153670;-16
2022/06/14 03:25:23;;;;;;;3.78;2.38;;;;;;;;;;7330647;19;161852;-18
2022/06/14 03:28:01;;;;;;;3.47;2.10;;;;;;;;;;7329972;19;162475;-15
2022/06/14 03:30:38;;;;;;;4.55;2.40;;;;;;;;;;7330323;19;153975;-16
2022/06/14 03:33:18;;;;;;;4.03;2.60;;;;;;;;;;7330053;19;153752;-16
2022/06/14 03:35:51;;;;;;;3.17;2.05;;;;;;;;;;7330912;19;161515;-16
2022/06/14 03:38:28;;;;;;;2.42;2.15;;;;;;;;;;7329664;19;162793;-16
2022/06/14 03:40:59;;;;;;;2.70;2.20;;;;;;;;;;7331058;19;154176;-16
2022/06/14 03:43:32;;;;;;;3.58;2.22;;;;;;;;;;7330925;19;153640;-16
2022/06/14 03:46:13;;;;;;;2.45;2.20;;;;;;;;;;7330617;19;162050;-16
2022/06/14 03:48:48;;;;;;;4.93;2.75;;;;;;;;;;7330600;19;162822;-16
2022/06/14 03:51:25;;;;;;;4.32;2.40;;;;;;;;;;7333849;19;154110;-16
2022/06/14 03:54:15;;;;;;;2.90;2.42;;;;;;;;;;7330776;19;153733;-17
2022/06/14 03:57:00;;;;;;;4.03;2.35;;;;;;;;;;7333184;19;161808;-16
2022/06/14 03:59:47;;;;;;;4.20;2.22;;;;;;;;;;7332591;19;162563;-16
2022/06/14 04:02:53;;;;;;;3.35;2.35;;;;;;;;;;7332359;19;154088;-16
2022/06/14 04:05:29;;;;;;;2.78;2.08;;;;;;;;;;7333560;19;153514;-18
2022/06/14 04:08:08;;;;;;;3.30;2.53;;;;;;;;;;7333133;19;161890;-16
2022/06/14 04:10:44;;;;;;;4.30;2.00;;;;;;;;;;7332376;19;162975;-16
2022/06/14 04:13:20;;;;;;;3.08;2.08;;;;;;;;;;7332488;19;155324;-17
2022/06/14 04:15:56;;;;;;;2.40;2.20;;;;;;;;;;7331457;19;153597;-15
2022/06/14 04:18:41;;;;;;;3.10;1.98;;;;;;;;;;7331169;19;161799;-16
2022/06/14 04:21:26;;;;;;;2.92;2.45;;;;;;;;;;7332616;19;163082;-16
2022/06/14 04:24:00;;;;;;;2.50;2.30;;;;;;;;;;7333445;19;153975;-16
2022/06/14 04:26:37;;;;;;;2.10;1.88;;;;;;;;;;7329586;19;153366;-17
2022/06/14 04:29:14;;;;;;;2.50;2.30;;;;;;;;;;7329285;19;161816;-16
2022/06/14 04:31:50;;;;;;;3.05;2.40;;;;;;;;;;7327563;19;162086;-16
2022/06/14 04:34:31;;;;;;;2.53;2.30;;;;;;;;;;7329679;19;154069;-17
2022/06/14 04:37:08;;;;;;;2.80;2.13;;;;;;;;;;7329812;19;153592;-16
2022/06/14 04:39:44;;;;;;;3.20;2.15;;;;;;;;;;7335915;19;161927;-17
2022/06/14 04:42:20;;;;;;;2.40;2.20;;;;;;;;;;7335811;19;162195;-16
2022/06/14 04:44:56;;;;;;;2.42;2.22;;;;;;;;;;7336297;19;154045;-17
2022/06/14 04:47:33;;;;;;;3.40;2.28;;;;;;;;;;7335825;19;153502;-16
2022/06/14 04:50:14;;;;;;;3.72;2.33;;;;;;;;;;7334476;19;161941;-16
2022/06/14 04:52:51;;;;;;;3.50;2.33;;;;;;;;;;7333607;19;162624;-17
2022/06/14 04:55:26;;;;;;;3.25;2.30;;;;;;;;;;7335783;19;154114;-15
2022/06/14 04:58:01;;;;;;;3.20;2.30;;;;;;;;;;7335469;19;153523;-17
2022/06/14 05:00:36;;;;;;;4.05;2.38;;;;;;;;;;7335252;19;161795;-17
2022/06/14 05:03:13;;;;;;;3.13;2.30;;;;;;;;;;7335060;19;162522;-16
2022/06/14 05:05:50;;;;;;;2.65;2.20;;;;;;;;;;7334333;19;154170;-16
2022/06/14 05:08:26;;;;;;;4.22;2.33;;;;;;;;;;7334903;19;153479;-16
2022/06/14 05:11:03;;;;;;;3.88;2.30;;;;;;;;;;7336475;19;161853;-16
2022/06/14 05:13:44;;;;;;;2.65;2.30;;;;;;;;;;7334850;19;162351;-15
2022/06/14 05:16:18;;;;;;;3.22;2.35;;;;;;;;;;7333528;19;154339;-16
2022/06/14 05:18:55;;;;;;;2.15;1.95;;;;;;;;;;7335054;19;153618;-16
2022/06/14 05:21:33;;;;;;;3.15;2.13;;;;;;;;;;7334575;19;161853;-16
2022/06/14 05:24:06;;;;;;;2.88;2.42;;;;;;;;;;7334473;19;162345;-16
2022/06/14 05:26:57;;;;;;;2.55;2.22;;;;;;;;;;7333594;19;154189;-16
2022/06/14 05:29:36;;;;;;;2.63;2.30;;;;;;;;;;7334937;19;153563;-17
2022/06/14 05:32:13;;;;;;;3.22;2.33;;;;;;;;;;7333208;19;161833;-17
2022/06/14 05:34:52;;;;;;;4.40;3.40;;;;;;;;;;7332860;19;162699;-17
2022/06/14 05:37:36;;;;;;;6.47;3.38;;;;;;;;;;7332799;19;154069;-17
2022/06/14 05:40:16;;;;;;;5.35;3.90;;;;;;;;;;7334037;19;153489;-16
2022/06/14 05:42:54;;;;;;;5.95;3.38;;;;;;;;;;7334137;19;162241;-16
2022/06/14 05:45:26;;;;;;;6.20;3.85;;;;;;;;;;7333405;19;162200;-16
2022/06/14 05:48:03;;;;;;;6.83;4.20;;;;;;;;;;7334041;19;154282;-17
2022/06/14 05:50:42;;;;;;;7.15;4.68;;;;;;;;;;7332546;19;153597;-16
2022/06/14 05:53:21;;;;;;;6.78;4.50;;;;;;;;;;7331360;19;161888;-17
2022/06/14 05:55:56;;;;;;;9.50;5.28;;;;;;;;;;7332854;19;162402;-16
2022/06/14 05:58:33;;;;;;;9.25;5.00;;;;;;;;;;7333912;19;154130;-17
2022/06/14 06:01:09;;;;;;;9.35;5.40;;;;;;;;;;7333495;19;153531;-17
2022/06/14 06:03:46;;;;;;;8.02;4.88;;;;;;;;;;7332806;19;162056;-16
2022/06/14 06:06:21;;;;;;;8.30;5.20;;;;;;;;;;7332475;19;162515;-15
2022/06/14 06:08:59;;;;;;;8.43;5.25;;;;;;;;;;7333401;19;153997;-16
2022/06/14 06:11:36;;;;;;;7.80;4.45;;;;;;;;;;7330195;19;153814;-16
2022/06/14 06:14:10;;;;;;;9.10;4.60;;;;;;;;;;7329612;19;161970;-16
2022/06/14 06:16:46;;;;;;;9.15;4.60;;;;;;;;;;7330410;19;162163;-16
2022/06/14 06:19:22;;;;;;;8.20;4.45;;;;;;;;;;7331962;19;154015;-18
2022/06/14 06:21:58;;;;;;;6.18;4.50;;;;;;;;;;7333201;19;153478;-17
2022/06/14 06:24:38;;;;;;;7.78;4.75;;;;;;;;;;7332728;19;162093;-18
2022/06/14 06:27:12;;;;;;;8.98;3.97;;;;;;;;;;7330774;19;162551;-18
2022/06/14 06:29:48;;;;;;;7.53;4.20;;;;;;;;;;7333008;19;154198;-18
2022/06/14 06:32:21;;;;;;;9.40;4.25;;;;;;;;;;7332467;19;153620;-18
2022/06/14 06:34:52;;;;;;;;;;;;;;;;;;7333272;19;161884;-18
2022/06/14 06:37:28;;;;;;;9.88;4.45;;;;;;;;;;7331343;19;162719;-18
2022/06/14 06:40:04;;;;;;;6.75;4.53;;;;;;;;;;7332788;19;153956;-17
2022/06/14 06:42:42;;;;;;;8.60;4.45;;;;;;;;;;7332819;19;153528;-17
2022/06/14 06:45:18;;;;;;;7.68;4.45;;;;;;;;;;7331117;19;162077;-17
2022/06/14 06:47:55;;;;;;;9.50;4.95;;;;;;;;;;7332295;19;162520;-18
2022/06/14 06:50:28;;;;;;;6.43;4.32;;;;;;;;;;7332744;19;154108;-18
2022/06/14 06:53:09;;;;;;;7.97;3.95;;;;;;;;;;7331312;19;153572;-18
2022/06/14 06:55:53;;;;;;;5.35;4.18;;;;;;;;;;7332074;19;161959;-17
2022/06/14 06:58:28;;;;;;;9.23;4.05;;;;;;;;;;7331895;19;162650;-18
2022/06/14 07:01:06;;;;;;;5.78;3.70;;;;;;;;;;7332221;19;154059;-18
2022/06/14 07:03:45;;;;;;;9.25;4.45;;;;;;;;;;7331016;19;153709;-17
2022/06/14 07:06:19;;;;;;;9.27;4.28;;;;;;;;;;7330692;19;162031;-18
2022/06/14 07:08:56;;;;;;;9.10;4.40;;;;;;;;;;7331672;19;162376;-18
2022/06/14 07:11:38;;;;;;;8.95;4.20;;;;;;;;;;7331450;19;154128;-17
2022/06/14 07:14:15;;;;;;;8.70;4.00;;;;;;;;;;7332527;19;153520;-16
2022/06/14 07:16:54;;;;;;;9.15;4.03;;;;;;;;;;7332700;19;162026;-17
2022/06/14 07:19:36;;;;;;;7.97;3.60;;;;;;;;;;7328712;19;162335;-16
2022/06/14 07:22:15;;;;;;;16.75;4.93;;;;;;;;;;7328731;19;154022;-16
2022/06/14 07:24:56;;;;;;;10.88;4.40;;;;;;;;;;7331608;19;153666;-16
2022/06/14 07:27:54;;;;;;;8.25;3.85;;;;;;;;;;7331171;19;162284;-18
2022/06/14 07:30:29;;;;;;;6.28;3.95;;;;;;;;;;7330857;19;162474;-18
2022/06/14 07:33:03;;;;;;;9.40;4.55;;;;;;;;;;7331671;19;154035;-17
2022/06/14 07:35:39;;;;;;;9.25;4.15;;;;;;;;;;7331233;19;153543;-17
2022/06/14 07:38:18;;;;;;;8.73;4.13;;;;;;;;;;7330791;19;161974;-18
2022/06/14 07:40:56;;;;;;;7.80;3.80;;;;;;;;;;7330825;19;162532;-18
2022/06/14 07:43:36;;;;;;;10.05;4.30;;;;;;;;;;7331028;19;154122;-18
2022/06/14 07:46:11;;;;;;;7.78;4.03;;;;;;;;;;7331020;19;153514;-17
2022/06/14 07:48:49;;;;;;;9.82;4.53;;;;;;;;;;7330352;19;161924;-18
2022/06/14 07:51:27;;;;;;;8.98;4.30;;;;;;;;;;7330503;19;162521;-17
2022/06/14 07:54:06;;;;;;;13.70;4.30;;;;;;;;;;7329421;19;153985;-19
2022/06/14 07:56:46;;;;;;;8.68;3.70;;;;;;;;;;7330722;19;153827;-17
2022/06/14 07:59:24;;;;;;;7.70;4.47;;;;;;;;;;7330205;19;161996;-17
2022/06/14 08:02:02;;;;;;;9.80;4.68;;;;;;;;;;7330104;19;162475;-17
2022/06/14 08:04:38;;;;;;;10.25;4.15;;;;;;;;;;7330443;19;154559;-17
2022/06/14 08:07:14;;;;;;;7.90;4.60;;;;;;;;;;7329284;19;153495;-18
2022/06/14 08:09:50;;;;;;;9.90;4.10;;;;;;;;;;7329994;19;161875;-17
2022/06/14 08:12:26;;;;;;;11.07;3.92;;;;;;;;;;7328967;19;162511;-17
2022/06/14 08:15:03;;;;;;;10.05;3.97;;;;;;;;;;7327742;19;154543;-17
2022/06/14 08:17:41;;;;;;;12.27;4.38;;;;;;;;;;7329766;19;153837;-18
2022/06/14 08:20:21;;;;;;;7.88;3.95;;;;;;;;;;7329439;19;161874;-18
2022/06/14 08:22:57;;;;;;;8.95;3.95;;;;;;;;;;7329456;19;162524;-18
2022/06/14 08:25:32;;;;;;;11.57;4.75;;;;;;;;;;7329934;19;154027;-17
2022/06/14 08:28:12;;;;;;;6.57;4.07;;;;;;;;;;7329633;19;153579;-18
2022/06/14 08:30:51;;;;;;;10.63;4.55;;;;;;;;;;7329355;19;161940;-17
2022/06/14 08:33:27;;;;;;;5.55;3.65;;;;;;;;;;7329184;19;162496;-17
2022/06/14 08:36:04;;;;;;;10.18;4.43;;;;;;;;;;7329540;19;154038;-18
2022/06/14 08:38:40;;;;;;;6.97;4.20;;;;;;;;;;7329546;19;153816;-16
2022/06/14 08:41:31;;;;;;;7.10;3.85;;;;;;;;;;7329042;19;162077;-18
2022/06/14 08:44:06;;;;;;;9.48;4.80;;;;;;;;;;7328996;19;162602;-18
2022/06/14 08:46:50;;;;;;;7.82;3.95;;;;;;;;;;7329148;19;154155;-17
2022/06/14 08:49:36;;;;;;;10.63;5.37;;;;;;;;;;7329175;19;153702;-18
2022/06/14 08:52:36;;;;;;;6.03;4.35;;;;;;;;;;7328518;19;161794;-17
2022/06/14 08:55:25;;;;;;;8.27;4.45;;;;;;;;;;7326484;19;162461;-17
2022/06/14 08:58:12;;;;;;;6.97;4.78;;;;;;;;;;7328881;19;154097;-18
2022/06/14 09:00:54;;;;;;;10.07;5.57;;;;;;;;;;7328789;19;153540;-18
2022/06/14 09:03:57;;;;;;;7.72;5.18;;;;;;;;;;7328330;19;161884;-18
2022/06/14 09:06:46;;;;;;;9.23;4.97;;;;;;;;;;7328225;19;162444;-17
2022/06/14 09:09:48;;;;;;;8.35;5.50;;;;;;;;;;7328627;19;154104;-17
2022/06/14 09:12:55;;;;;;;5.72;5.15;;;;;;;;;;7328374;19;153718;-17
2022/06/14 09:15:48;;;;;;;10.10;5.20;;;;;;;;;;7325762;19;161832;-17
2022/06/14 09:18:38;;;;;;;7.65;5.07;;;;;;;;;;7327859;19;162396;-18
2022/06/14 09:21:31;;;;;;;7.90;5.15;;;;;;;;;;7328084;19;153989;-17
2022/06/14 09:24:15;;;;;;;6.57;4.90;;;;;;;;;;7328425;19;153663;-18
2022/06/14 09:27:09;;;;;;;7.13;4.88;;;;;;;;;;7333616;19;161892;-17
2022/06/14 09:30:05;;;;;;;6.50;4.70;;;;;;;;;;7334486;19;162360;-18
2022/06/14 09:33:13;;;;;;;7.95;5.15;;;;;;;;;;7334832;19;154083;-18
2022/06/14 09:36:09;;;;;;;6.30;5.70;;;;;;;;;;7332900;19;153591;-17
2022/06/14 09:39:18;;;;;;;8.13;4.85;;;;;;;;;;7334004;19;161961;-18
2022/06/14 09:42:10;;;;;;;9.68;5.00;;;;;;;;;;7332387;19;162470;-17
2022/06/14 09:45:19;;;;;;;6.68;5.35;;;;;;;;;;7334450;19;154503;-17
2022/06/14 09:48:14;;;;;;;7.55;5.15;;;;;;;;;;7333979;19;153706;-17
2022/06/14 09:51:22;;;;;;;6.45;5.95;;;;;;;;;;7333774;19;161993;-17
2022/06/14 09:54:25;;;;;;;6.70;5.88;;;;;;;;;;7332643;19;162556;-17
2022/06/14 09:57:33;;;;;;;9.10;5.85;;;;;;;;;;7332416;19;153986;-17
2022/06/14 10:00:31;;;;;;;8.93;6.68;;;;;;;;;;7332483;19;153692;-17
2022/06/14 10:03:30;;;;;;;7.72;6.50;;;;;;;;;;7332916;19;161921;-16
2022/06/14 10:06:27;;;;;;;12.68;7.82;;;;;;;;;;7333393;19;162427;-17
2022/06/14 10:09:09;;;;;;;12.88;6.90;;;;;;;;;;7333637;19;154064;-18
2022/06/14 10:11:56;;;;;;;11.48;7.68;;;;;;;;;;7333494;19;153772;-17
2022/06/14 10:14:43;;;;;;;9.90;7.15;;;;;;;;;;7333035;19;161977;-18
2022/06/14 10:17:33;;;;;;;10.68;7.53;;;;;;;;;;7330438;19;162663;-17
2022/06/14 10:20:40;;;;;;;10.77;7.53;;;;;;;;;;7333587;19;154001;-17
2022/06/14 10:23:32;;;;;;;9.77;7.38;;;;;;;;;;7333337;19;153525;-17
2022/06/14 10:29:23;;;;;;;7.63;6.32;;;;;;;;;;7332606;19;162559;-17
2022/06/14 10:32:19;;;;;;;9.30;6.63;;;;;;;;;;7333085;19;154071;-17
2022/06/14 10:34:58;;;;;;;11.25;6.63;;;;;;;;;;7331869;19;153844;-18
2022/06/14 10:37:43;;;;;;;10.80;6.60;;;;;;;;;;7332520;19;162492;-17
2022/06/14 10:40:39;;;;;;;9.40;7.10;;;;;;;;;;7332378;19;162424;-17
2022/06/14 10:43:18;;;;;;;9.18;6.63;;;;;;;;;;7333046;19;154415;-18
2022/06/14 10:46:00;;;;;;;7.40;6.03;;;;;;;;;;7332768;19;153697;-17
2022/06/14 10:49:07;;;;;;;12.13;7.05;;;;;;;;;;7332397;19;162020;-23
2022/06/14 10:52:03;;;;;;;10.27;6.50;;;;;;;;;;7332064;19;162382;-17
2022/06/14 10:54:45;;;;;;;6.82;5.82;;;;;;;;;;7332601;19;153951;-17
2022/06/14 10:57:40;;;;;;;9.57;6.18;;;;;;;;;;7329700;19;155744;-17
2022/06/14 11:00:18;;;;;;;10.10;6.00;;;;;;;;;;7331946;19;162110;-17
2022/06/14 11:03:08;;;;;;;7.22;6.10;;;;;;;;;;7331600;19;162650;-18
2022/06/14 11:05:56;;;;;;;7.70;5.88;;;;;;;;;;7332193;19;154104;-17
2022/06/14 11:08:44;;;;;;;8.63;5.82;;;;;;;;;;7331976;19;153526;-17
2022/06/14 11:11:37;;;;;;;7.60;5.90;;;;;;;;;;7331581;19;161784;-18
2022/06/14 11:14:15;;;;;;;11.80;6.13;;;;;;;;;;7334723;19;162594;-23
2022/06/14 11:17:05;;;;;;;8.95;6.15;;;;;;;;;;7329197;19;154053;-18
2022/06/14 11:20:00;;;;;;;8.18;5.85;;;;;;;;;;7330553;19;153720;-18
2022/06/14 11:22:40;;;;;;;10.27;6.35;;;;;;;;;;7331028;19;161979;-17
2022/06/14 11:25:30;;;;;;;7.80;6.13;;;;;;;;;;7331232;19;162537;-18
2022/06/14 11:28:07;;;;;;;8.85;5.85;;;;;;;;;;7331609;19;154179;-18
2022/06/14 11:30:53;;;;;;;7.75;5.32;;;;;;;;;;7331464;19;153619;-17
2022/06/14 11:33:40;;;;;;;9.35;6.63;;;;;;;;;;7331019;19;162016;-17
2022/06/14 11:36:25;;;;;;;8.15;5.45;;;;;;;;;;7330385;19;162373;-17
2022/06/14 11:39:12;;;;;;;7.05;5.30;;;;;;;;;;7331281;19;153979;-17
2022/06/14 11:41:49;;;;;;;8.25;5.80;;;;;;;;;;7331100;19;153610;-18
2022/06/14 11:44:54;;;;;;;6.65;4.97;;;;;;;;;;7329451;19;161881;-18
2022/06/14 11:47:33;;;;;;;6.47;5.57;;;;;;;;;;7328213;19;162326;-17
2022/06/14 11:50:16;;;;;;;5.72;5.07;;;;;;;;;;7330704;19;154153;-18
2022/06/14 11:53:03;;;;;;;9.55;5.55;;;;;;;;;;7330569;19;153737;-18
2022/06/14 11:55:39;;;;;;;6.28;4.78;;;;;;;;;;7329979;19;161889;-17
2022/06/14 11:58:17;;;;;;;7.78;5.38;;;;;;;;;;7330222;19;162428;-21
2022/06/14 12:01:06;;;;;;;6.40;4.95;;;;;;;;;;7330815;19;154170;-17
2022/06/14 12:04:04;;;;;;;11.52;5.07;;;;;;;;;;7330564;19;153798;-17
2022/06/14 12:06:43;;;;;;;9.30;4.63;;;;;;;;;;7330009;19;162037;-17
2022/06/14 12:09:43;;;;;;;5.70;5.20;;;;;;;;;;7329842;19;162404;-17
2022/06/14 12:12:24;;;;;;;5.30;4.75;;;;;;;;;;7329025;19;154032;-18
2022/06/14 12:15:10;;;;;;;4.97;4.50;;;;;;;;;;7329967;19;153774;-17
2022/06/14 12:17:50;;;;;;;4.95;4.47;;;;;;;;;;7329240;19;134220;-17
2022/06/14 12:20:23;;;;;;;7.10;4.70;;;;;;;;;;7332971;19;164120;-18
2022/06/14 12:23:04;;;;;;;6.35;4.53;;;;;;;;;;7329993;19;154103;-18
2022/06/14 12:28:37;;;;;;;7.70;4.68;;;;;;;;;;7330179;19;161863;-18
2022/06/14 12:31:21;;;;;;;6.32;4.80;;;;;;;;;;7329569;19;162579;-17
2022/06/14 12:33:56;;;;;;;7.07;4.55;;;;;;;;;;7329712;19;154061;-18
2022/06/14 12:36:37;;;;;;;5.85;4.53;;;;;;;;;;7328889;19;153609;-17
2022/06/14 12:39:13;;;;;;;6.35;4.25;;;;;;;;;;7328524;19;161793;-16
2022/06/14 12:42:00;;;;;;;4.60;4.10;;;;;;;;;;7328871;19;162641;-16
2022/06/14 12:44:44;;;;;;;5.28;3.70;;;;;;;;;;7329230;19;154421;-17
2022/06/14 12:47:25;;;;;;;11.93;5.18;;;;;;;;;;7329139;19;153551;-17
2022/06/14 12:50:05;;;;;;;5.70;4.20;;;;;;;;;;7328740;19;161947;-16
2022/06/14 12:52:43;;;;;;;6.80;4.22;;;;;;;;;;7328522;19;162402;-17
2022/06/14 12:55:19;;;;;;;5.00;4.07;;;;;;;;;;7328847;19;154133;-18
2022/06/14 12:58:04;;;;;;;5.55;4.20;;;;;;;;;;7326538;19;153294;-18
2022/06/14 13:00:41;;;;;;;6.63;4.22;;;;;;;;;;7335165;19;162715;-17
2022/06/14 13:03:27;;;;;;;5.60;4.00;;;;;;;;;;7335137;19;162579;-17
2022/06/14 13:06:06;;;;;;;7.85;5.28;;;;;;;;;;7335552;19;154463;-18
2022/06/14 13:08:49;;;;;;;7.97;4.40;;;;;;;;;;7335586;19;153729;-18
2022/06/14 13:11:26;;;;;;;6.18;4.40;;;;;;;;;;7335094;19;162368;-17
2022/06/14 13:14:10;;;;;;;4.88;4.13;;;;;;;;;;7335012;19;162431;-26
2022/06/14 13:17:00;;;;;;;5.95;4.63;;;;;;;;;;7333157;19;154471;-17
2022/06/14 13:19:40;;;;;;;4.68;3.70;;;;;;;;;;7335317;19;153324;-17
2022/06/14 13:22:31;;;;;;;7.00;4.50;;;;;;;;;;7334666;19;161990;-17
2022/06/14 13:25:24;;;;;;;5.18;4.45;;;;;;;;;;7334656;19;162430;-18
2022/06/14 13:28:05;;;;;;;8.27;4.18;;;;;;;;;;7333556;19;154217;-17
2022/06/14 13:30:43;;;;;;;5.72;4.57;;;;;;;;;;7333660;19;153750;-17
2022/06/14 13:33:34;;;;;;;7.63;5.25;;;;;;;;;;7334298;19;162200;-17
2022/06/14 13:36:17;;;;;;;7.40;5.63;;;;;;;;;;7334202;19;162411;-17
2022/06/14 13:38:54;;;;;;;8.35;5.05;;;;;;;;;;7332401;19;154171;-17
2022/06/14 13:41:34;;;;;;;9.32;5.70;;;;;;;;;;7335903;19;153507;-18
2022/06/14 13:44:12;;;;;;;6.20;5.13;;;;;;;;;;7333626;19;162053;-17
2022/06/14 13:46:49;;;;;;;6.63;4.90;;;;;;;;;;7333667;19;162520;-18
2022/06/14 13:49:29;;;;;;;6.57;5.07;;;;;;;;;;7334106;19;153768;-18
2022/06/14 13:52:06;;;;;;;5.80;5.18;;;;;;;;;;7334045;19;153521;-17
2022/06/14 13:54:40;;;;;;;6.40;4.95;;;;;;;;;;7332263;19;161894;-17
2022/06/14 13:57:27;;;;;;;10.18;5.60;;;;;;;;;;7332842;19;162419;-17
2022/06/14 14:00:03;;;;;;;7.38;5.75;;;;;;;;;;7333647;19;154190;-17
2022/06/14 14:02:49;;;;;;;7.20;5.20;;;;;;;;;;7333609;19;153552;-17
2022/06/14 14:05:26;;;;;;;10.70;5.75;;;;;;;;;;7333019;19;162449;-16
2022/06/14 14:08:15;;;;;;;8.95;6.15;;;;;;;;;;7332947;19;162463;-17
2022/06/14 14:10:51;;;;;;;7.40;6.53;;;;;;;;;;7331994;19;154205;-16
2022/06/14 14:13:29;;;;;;;11.80;5.70;;;;;;;;;;7333649;19;153517;-17
2022/06/14 14:16:06;;;;;;;7.10;5.47;;;;;;;;;;7331802;19;161969;-17
2022/06/14 14:18:49;;;;;;;7.18;5.57;;;;;;;;;;7331403;19;162482;-17
2022/06/14 14:21:24;;;;;;;8.05;5.88;;;;;;;;;;7333251;19;154511;-17
2022/06/14 14:24:23;;;;;;;8.77;6.55;;;;;;;;;;7333251;19;153768;-17
2022/06/14 14:27:03;;;;;;;9.70;6.40;;;;;;;;;;7332572;19;161941;-16
2022/06/14 14:29:42;;;;;;;10.60;6.38;;;;;;;;;;7332556;19;162548;-16
2022/06/14 14:32:20;;;;;;;8.38;5.78;;;;;;;;;;7333162;19;154242;-15
2022/06/14 14:34:54;;;;;;;6.43;5.47;;;;;;;;;;7332974;19;153651;-16
2022/06/14 14:37:32;;;;;;;7.38;6.15;;;;;;;;;;7332213;19;161827;-17
2022/06/14 14:40:22;;;;;;;9.23;6.35;;;;;;;;;;7332590;19;162403;-17
2022/06/14 14:43:05;;;;;;;10.75;5.95;;;;;;;;;;7331785;19;154045;-16
2022/06/14 14:45:46;;;;;;;9.10;6.10;;;;;;;;;;7332669;19;153966;-17
2022/06/14 14:48:28;;;;;;;11.10;6.85;;;;;;;;;;7332233;19;161840;-16
2022/06/14 14:51:06;;;;;;;8.30;6.07;;;;;;;;;;7331000;19;162614;-16
2022/06/14 14:53:43;;;;;;;8.80;5.93;;;;;;;;;;7332262;19;154278;-21
2022/06/14 14:56:22;;;;;;;8.32;6.03;;;;;;;;;;7332356;19;153768;-16
2022/06/14 14:59:00;;;;;;;8.48;5.80;;;;;;;;;;7329209;19;161866;-16
2022/06/14 15:07:37;;;;;;;9.65;6.65;;;;;;;;;;7332075;19;153650;-16
2022/06/14 15:10:15;;;;;;;10.53;6.67;;;;;;;;;;7331324;19;161973;-16
2022/06/14 15:12:52;;;;;;;9.52;6.07;;;;;;;;;;7331360;19;162267;-16
2022/06/14 15:15:27;;;;;;;10.45;6.65;;;;;;;;;;7330905;19;154534;-17
2022/06/14 15:20:53;;;;;;;10.95;6.30;;;;;;;;;;7331191;19;161913;-16
2022/06/14 15:23:28;;;;;;;9.65;6.57;;;;;;;;;;7331239;19;162614;-16
2022/06/14 15:26:01;;;;;;;9.88;6.32;;;;;;;;;;7331635;19;154445;-16
2022/06/14 15:28:51;;;;;;;11.73;6.90;;;;;;;;;;7331093;19;154119;-17
2022/06/14 15:31:53;;;;;;;9.25;6.35;;;;;;;;;;7329450;19;162304;-16
2022/06/14 15:34:31;;;;;;;10.23;6.80;;;;;;;;;;7328998;19;162384;-16
2022/06/14 15:37:17;;;;;;;10.32;6.53;;;;;;;;;;7331233;19;153961;-16
2022/06/14 15:39:55;;;;;;;7.22;5.88;;;;;;;;;;7328786;19;153373;-16
2022/06/14 15:42:41;;;;;;;11.00;7.00;;;;;;;;;;7330642;19;162126;-16
2022/06/14 15:45:25;;;;;;;8.15;6.40;;;;;;;;;;7331212;19;162400;-17
2022/06/14 15:48:06;;;;;;;11.57;7.03;;;;;;;;;;7330930;19;154021;-17
2022/06/14 15:50:41;;;;;;;9.10;5.85;;;;;;;;;;7330819;19;153747;-17
2022/06/14 15:53:22;;;;;;;10.35;6.53;;;;;;;;;;7329339;19;161861;-17
2022/06/14 15:55:57;;;;;;;7.63;6.05;;;;;;;;;;7330280;19;162334;-17
2022/06/14 15:58:32;;;;;;;9.20;6.10;;;;;;;;;;7330157;19;153782;-17
2022/06/14 16:01:17;;;;;;;9.57;6.03;;;;;;;;;;7330617;19;153485;-17
2022/06/14 16:03:56;;;;;;;9.65;5.78;;;;;;;;;;7330250;19;161835;-17
2022/06/14 16:06:32;;;;;;;9.07;6.70;;;;;;;;;;7333539;19;162624;-17
2022/06/14 16:09:06;;;;;;;9.82;6.88;;;;;;;;;;7330309;19;153979;-16